.
WxDataArchive / Data Records for 2016-02-02
2016-02-01 February 2016 2016-02-03

Data Records for Tuesday, 02 February 2016

Time	Temp	Chill	HIndex	Humid	Dewpt	 Wind 	HiWind	WindDir	Rain 	Barom
-----	----	-----	------	-----	-----	------	------	-------	-----	-----
00:00	25.7	25.7	25.7	90	23.2	0	0	---	0.00	30.123 
00:05	25.6	25.6	25.6	90	23.1	0	0	---	0.00	30.123 
00:10	25.6	25.6	25.6	90	23.1	0	0	---	0.00	30.123 
00:15	25.4	25.4	25.4	90	22.9	0	0	---	0.00	30.115 
00:20	25.4	25.4	25.4	91	23.1	0	0	---	0.00	30.115 
00:25	25.4	25.4	25.4	91	23.1	0	0	---	0.00	30.115 
00:30	25.4	25.4	25.4	91	23.1	0	0	---	0.00	30.102 
00:35	25.4	25.4	25.4	91	23.1	0	0	---	0.00	30.102 
00:40	25.4	25.4	25.4	91	23.1	0	0	---	0.00	30.102 
00:45	25.6	25.6	25.6	91	23.3	0	0	---	0.00	30.109 
00:50	25.6	25.6	25.6	91	23.3	0	0	---	0.00	30.109 
00:55	25.6	25.6	25.6	91	23.3	0	0	---	0.00	30.109 
01:00	25.6	25.6	25.6	91	23.3	0	0	---	0.00	30.114 
01:05	25.4	25.4	25.4	91	23.1	0	0	---	0.00	30.114 
01:10	25.4	25.4	25.4	91	23.1	0	0	---	0.00	30.114 
01:15	25.3	25.3	25.3	91	23.0	0	0	---	0.00	30.116 
01:20	25.3	25.3	25.3	91	23.0	0	0	---	0.00	30.116 
01:25	25.3	25.3	25.3	91	23.0	0	0	---	0.00	30.116 
01:30	25.4	25.4	25.4	92	23.4	0	0	---	0.00	30.131 
01:35	25.4	25.4	25.4	92	23.4	0	0	---	0.00	30.131 
01:40	25.6	25.6	25.6	92	23.6	0	0	---	0.00	30.131 
01:45	25.6	25.6	25.6	91	23.3	0	0	---	0.00	30.134 
01:50	25.4	25.4	25.4	91	23.1	0	0	---	0.00	30.134 
01:55	25.3	25.3	25.3	91	23.0	0	0	---	0.00	30.134 
02:00	25.1	25.1	25.1	91	22.9	0	0	---	0.00	30.131 
02:05	25.1	25.1	25.1	91	22.9	0	0	---	0.00	30.131 
02:10	25.1	25.1	25.1	92	23.1	0	0	---	0.00	30.131 
02:15	25.3	25.3	25.3	92	23.3	0	0	---	0.00	30.136 
02:20	25.3	25.3	25.3	92	23.3	0	0	---	0.00	30.136 
02:25	25.4	25.4	25.4	92	23.4	0	0	---	0.00	30.136 
02:30	25.4	25.4	25.4	92	23.4	0	0	---	0.00	30.140 
02:35	25.6	25.6	25.6	92	23.6	0	0	---	0.00	30.140 
02:40	25.6	25.6	25.6	92	23.6	0	0	---	0.00	30.140 
02:45	25.4	25.4	25.4	92	23.4	0	0	---	0.00	30.143 
02:50	25.3	25.3	25.3	92	23.3	0	0	---	0.00	30.143 
02:55	25.3	25.3	25.3	92	23.3	0	0	---	0.00	30.143 
03:00	25.1	25.1	25.1	92	23.1	0	0	---	0.00	30.146 
03:05	25.0	25.0	25.0	92	23.0	0	0	---	0.00	30.146 
03:10	24.8	24.8	24.8	92	22.8	0	0	---	0.00	30.146 
03:15	24.8	24.8	24.8	92	22.8	0	0	---	0.00	30.146 
03:20	24.8	24.8	24.8	92	22.8	0	0	---	0.00	30.146 
03:25	24.8	24.8	24.8	92	22.8	0	0	---	0.00	30.146 
03:30	24.8	24.8	24.8	92	22.8	0	0	---	0.00	30.144 
03:35	24.8	24.8	24.8	92	22.8	0	0	---	0.00	30.144 
03:40	24.8	24.8	24.8	92	22.8	0	0	---	0.00	30.144 
03:45	24.8	24.8	24.8	92	22.8	0	0	---	0.00	30.151 
03:50	24.8	24.8	24.8	92	22.8	0	0	---	0.00	30.151 
03:55	25.0	25.0	25.0	92	23.0	0	0	---	0.00	30.151 
04:00	25.0	25.0	25.0	92	23.0	0	0	---	0.00	30.148 
04:05	25.3	25.3	25.3	92	23.3	0	0	---	0.00	30.148 
04:10	25.4	25.4	25.4	92	23.4	0	0	---	0.00	30.148 
04:15	25.7	25.7	25.7	92	23.7	0	0	---	0.00	30.143 
04:20	26.1	26.1	26.1	93	24.4	0	0	---	0.00	30.143 
04:25	27.3	27.3	27.3	94	25.8	0	2	292	0.00	30.143 
04:30	28.4	28.4	28.4	94	26.9	0	1	292	0.00	30.139 
04:35	29.1	29.1	29.1	94	27.6	0	1	292	0.00	30.139 
04:40	29.4	29.4	29.4	93	27.6	0	0	---	0.00	30.139 
04:45	29.7	29.7	29.7	93	27.9	0	1	292	0.00	30.136 
04:50	29.8	29.8	29.8	93	28.0	0	1	292	0.00	30.136 
04:55	30.1	30.1	30.1	93	28.3	0	1	292	0.00	30.136 
05:00	30.3	30.3	30.3	93	28.5	0	2	292	0.00	30.135 
05:05	30.4	30.4	30.4	93	28.6	0	2	292	0.00	30.135 
05:10	30.6	30.6	30.6	93	28.8	0	2	292	0.00	30.135 
05:15	30.6	30.6	30.6	93	28.8	0	2	292	0.00	30.130 
05:20	30.7	30.7	30.7	93	28.9	1	3	292	0.00	30.130 
05:25	30.7	30.7	30.7	93	28.9	1	3	112	0.00	30.130 
05:30	30.7	30.7	30.7	93	28.9	1	3	112	0.00	30.135 
05:35	30.7	30.7	30.7	92	28.7	1	3	112	0.00	30.135 
05:40	30.7	30.7	30.7	92	28.7	1	3	112	0.00	30.135 
05:45	30.7	30.7	30.7	92	28.7	1	4	112	0.00	30.140 
05:50	30.6	30.6	30.6	92	28.6	1	4	112	0.00	30.140 
05:55	30.6	30.6	30.6	92	28.6	1	3	112	0.00	30.140 
06:00	30.4	30.4	30.4	92	28.4	0	3	112	0.00	30.144 
06:05	30.3	30.3	30.3	92	28.3	1	2	112	0.00	30.144 
06:10	30.3	30.3	30.3	92	28.3	1	3	112	0.00	30.144 
06:15	30.4	30.4	30.4	92	28.4	1	3	112	0.00	30.143 
06:20	30.3	30.3	30.3	92	28.3	1	4	112	0.00	30.143 
06:25	30.4	30.4	30.4	92	28.4	0	2	112	0.00	30.143 
06:30	30.3	30.3	30.3	92	28.3	1	3	112	0.00	30.136 
06:35	30.4	30.4	30.4	92	28.4	1	4	112	0.00	30.136 
06:40	30.4	30.4	30.4	92	28.4	1	3	90	0.00	30.136 
06:45	30.6	30.6	30.6	92	28.6	1	4	90	0.00	30.132 
06:50	30.6	30.6	30.6	92	28.6	1	4	90	0.00	30.132 
06:55	30.6	30.6	30.6	92	28.6	1	4	90	0.00	30.132 
07:00	30.6	30.6	30.6	92	28.6	1	4	90	0.00	30.133 
07:05	30.6	30.6	30.6	92	28.6	1	4	90	0.00	30.133 
07:10	30.6	30.6	30.6	92	28.6	1	5	90	0.00	30.133 
07:15	30.6	30.6	30.6	92	28.6	1	3	90	0.00	30.136 
07:20	30.7	30.7	30.7	92	28.7	1	3	90	0.00	30.136 
07:25	30.7	30.7	30.7	92	28.7	1	3	90	0.00	30.136 
07:30	30.9	30.9	30.9	92	28.9	1	5	90	0.00	30.124 
07:35	31.0	31.0	31.0	92	29.0	2	6	90	0.00	30.124 
07:40	31.2	31.2	31.2	92	29.2	1	4	90	0.00	30.124 
07:45	31.3	31.3	31.3	92	29.3	2	6	90	0.00	30.121 
07:50	31.5	31.5	31.5	92	29.4	1	4	112	0.00	30.121 
07:55	31.6	31.6	31.6	92	29.5	2	7	112	0.00	30.121 
08:00	31.8	31.8	31.8	92	29.7	1	4	90	0.00	30.118 
08:05	31.9	31.9	31.9	92	29.8	1	5	90	0.00	30.118 
08:10	32.1	32.1	32.1	92	30.0	2	4	90	0.00	30.118 
08:15	32.2	32.2	32.2	92	30.1	1	4	90	0.00	30.150 
08:20	32.2	32.2	32.2	91	29.9	2	4	90	0.00	30.150 
08:25	32.4	32.4	32.4	91	30.1	2	5	90	0.00	30.150 
08:30	32.5	32.5	32.5	91	30.2	2	5	90	0.00	30.138 
08:35	32.5	32.5	32.5	91	30.2	2	5	90	0.00	30.138 
08:40	32.5	32.5	32.5	91	30.2	2	7	112	0.00	30.138 
08:45	32.7	32.7	32.7	91	30.4	3	7	90	0.00	30.135 
08:50	32.8	32.8	32.8	91	30.5	2	5	90	0.00	30.135 
08:55	32.9	32.9	32.9	91	30.6	2	4	90	0.00	30.135 
09:00	33.1	33.1	33.1	90	30.5	3	7	90	0.00	30.131 
09:05	33.2	33.2	33.2	90	30.6	3	7	90	0.00	30.131 
09:10	33.2	33.2	33.2	90	30.6	3	6	112	0.00	30.131 
09:15	33.2	33.2	33.2	90	30.6	3	6	90	0.00	30.125 
09:20	33.4	33.4	33.4	90	30.8	3	6	90	0.00	30.125 
09:25	33.4	33.4	33.4	90	30.8	2	5	90	0.00	30.125 
09:30	33.5	33.5	33.5	90	30.9	3	7	90	0.00	30.118 
09:35	33.7	33.7	33.7	89	30.8	3	6	90	0.00	30.118 
09:40	33.8	30.2	33.8	89	30.9	4	9	90	0.00	30.118 
09:45	34.0	34.0	34.0	89	31.1	3	7	90	0.00	30.113 
09:50	34.1	30.5	34.1	89	31.2	4	9	112	0.00	30.113 
09:55	34.3	30.7	34.3	88	31.1	4	9	90	0.00	30.113 
10:00	34.4	34.4	34.4	88	31.2	3	7	90	0.00	30.104 
10:05	34.7	31.2	34.7	88	31.5	4	7	90	0.00	30.104 
10:10	34.9	31.4	34.9	88	31.7	4	7	90	0.00	30.104 
10:15	35.2	35.2	35.2	87	31.7	3	9	90	0.00	30.104 
10:20	35.5	32.1	35.5	87	32.0	4	7	90	0.00	30.104 
10:25	35.8	32.5	35.8	87	32.3	4	9	90	0.00	30.104 
10:30	36.0	32.7	36.0	86	32.2	4	9	90	0.00	30.099 
10:35	36.6	33.4	36.6	85	32.5	4	8	112	0.00	30.099 
10:40	37.2	34.1	37.2	84	32.8	4	8	90	0.00	30.099 
10:45	37.5	33.5	37.5	83	32.8	5	10	112	0.00	30.075 
10:50	37.6	33.7	37.6	82	32.6	5	13	112	0.00	30.075 
10:55	38.0	32.7	38.0	81	32.7	7	13	112	0.00	30.075 
11:00	38.2	33.6	38.2	81	32.9	6	14	112	0.00	30.062 
11:05	38.0	33.4	38.0	81	32.7	6	12	90	0.00	30.062 
11:10	38.0	34.1	38.0	81	32.7	5	12	112	0.00	30.062 
11:15	38.2	33.6	38.2	80	32.6	6	14	112	0.00	30.054 
11:20	38.3	33.7	38.3	80	32.7	6	13	112	0.00	30.054 
11:25	38.5	34.0	38.5	79	32.6	6	13	112	0.00	30.054 
11:30	38.5	33.3	38.5	78	32.2	7	13	90	0.00	30.054 
11:35	38.6	34.1	38.6	79	32.7	6	11	112	0.00	30.054 
11:40	38.6	34.1	38.6	79	32.7	6	13	112	0.00	30.054 
11:45	38.6	34.1	38.6	79	32.7	6	13	112	0.00	30.036 
11:50	38.6	33.5	38.6	79	32.7	7	14	112	0.00	30.036 
11:55	38.8	34.3	38.8	79	32.9	6	15	90	0.00	30.036 
12:00	38.9	34.4	38.9	78	32.6	6	12	112	0.00	30.006 
12:05	39.1	34.7	39.1	79	33.1	6	14	90	0.00	30.006 
12:10	39.2	33.6	39.2	78	32.9	8	16	112	0.00	30.006 
12:15	39.2	34.8	39.2	78	32.9	6	13	112	0.00	29.995 
12:20	39.1	34.1	39.1	78	32.8	7	15	90	0.00	29.995 
12:25	38.9	34.4	38.9	78	32.6	6	12	112	0.00	29.995 
12:30	38.9	34.4	38.9	78	32.6	6	13	112	0.00	29.976 
12:35	39.2	34.8	39.2	78	32.9	6	13	90	0.00	29.976 
12:40	39.3	34.3	39.3	77	32.7	7	14	90	0.00	29.976 
12:45	39.5	35.2	39.5	76	32.6	6	12	90	0.00	29.966 
12:50	39.5	35.2	39.5	76	32.6	6	15	90	0.00	29.966 
12:55	39.6	36.0	39.6	76	32.7	5	11	112	0.00	29.966 
13:00	39.8	35.5	39.8	77	33.2	6	11	112	0.00	29.926 
13:05	40.1	35.9	40.1	76	33.2	6	11	112	0.00	29.926 
13:10	40.2	37.5	40.2	76	33.3	4	9	112	0.00	29.926 
13:15	40.2	36.7	40.2	75	32.9	5	12	90	0.00	29.913 
13:20	40.2	36.0	40.2	75	32.9	6	12	112	0.00	29.913 
13:25	40.2	36.0	40.2	75	32.9	6	14	90	0.00	29.913 
13:30	40.2	36.7	40.2	75	32.9	5	13	90	0.00	29.892 
13:35	40.5	35.7	40.5	74	32.9	7	14	90	0.00	29.892 
13:40	40.8	36.7	40.8	73	32.8	6	12	90	0.00	29.892 
13:45	41.1	37.8	41.1	71	32.4	5	12	112	0.00	29.864 
13:50	41.3	36.7	41.3	69	31.9	7	13	112	0.00	29.864 
13:55	41.8	37.3	41.8	69	32.4	7	13	90	0.00	29.864 
14:00	42.1	37.7	42.1	68	32.3	7	11	112	0.00	29.844 
14:05	42.2	37.3	42.2	68	32.4	8	18	112	0.00	29.844 
14:10	42.2	37.3	42.2	68	32.4	8	15	90	0.00	29.844 
14:15	42.1	37.7	42.1	68	32.3	7	15	112	0.00	29.821 
14:20	41.9	36.9	41.9	68	32.1	8	13	90	0.00	29.821 
14:25	41.9	37.4	41.9	69	32.5	7	14	112	0.00	29.821 
14:30	42.1	37.7	42.1	68	32.3	7	12	112	0.00	29.810 
14:35	42.2	38.4	42.2	68	32.4	6	14	112	0.00	29.810 
14:40	42.3	37.4	42.3	68	32.5	8	15	90	0.00	29.810 
14:45	42.3	37.9	42.3	68	32.5	7	13	90	0.00	29.795 
14:50	42.3	38.5	42.3	69	32.9	6	12	90	0.00	29.795 
14:55	42.3	37.9	42.3	70	33.2	7	13	112	0.00	29.795 
15:00	42.3	38.5	42.3	72	33.9	6	11	112	0.00	29.779 
15:05	42.5	38.2	42.5	73	34.5	7	11	112	0.00	29.779 
15:10	42.6	37.8	42.6	72	34.2	8	15	112	0.00	29.779 
15:15	42.8	38.5	42.8	71	34.1	7	15	112	0.00	29.764 
15:20	42.8	38.5	42.8	73	34.8	7	13	112	0.01	29.764 
15:25	42.6	38.9	42.6	75	35.2	6	12	112	0.00	29.764 
15:30	42.5	38.7	42.5	74	34.8	6	12	112	0.00	29.746 
15:35	42.8	38.5	42.8	74	35.1	7	12	90	0.00	29.746 
15:40	42.9	39.2	42.9	73	34.9	6	14	112	0.00	29.746 
15:45	42.8	39.8	42.8	74	35.1	5	10	90	0.00	29.736 
15:50	42.6	38.9	42.6	74	34.9	6	13	112	0.00	29.736 
15:55	42.3	39.2	42.3	77	35.6	5	10	90	0.01	29.736 
16:00	41.9	39.5	41.9	80	36.2	4	12	90	0.01	29.740 
16:05	41.6	39.2	41.6	81	36.2	4	9	90	0.01	29.740 
16:10	41.2	38.7	41.2	83	36.4	4	9	90	0.01	29.740 
16:15	41.1	38.6	41.1	84	36.6	4	10	90	0.02	29.746 
16:20	40.6	37.2	40.6	86	36.7	5	10	90	0.07	29.746 
16:25	40.3	37.7	40.3	87	36.7	4	9	90	0.00	29.746 
16:30	40.2	40.2	40.2	88	36.9	3	10	112	0.03	29.733 
16:35	40.2	40.2	40.2	88	36.9	3	5	90	0.01	29.733 
16:40	40.2	37.5	40.2	88	36.9	4	7	112	0.00	29.733 
16:45	40.1	37.4	40.1	89	37.1	4	7	112	0.04	29.728 
16:50	40.1	37.4	40.1	90	37.4	4	7	112	0.01	29.728 
16:55	40.1	40.1	40.1	90	37.4	3	6	112	0.00	29.728 
17:00	40.2	40.2	40.2	90	37.5	3	7	90	0.00	29.727 
17:05	40.1	37.4	40.1	90	37.4	4	10	90	0.00	29.727 
17:10	40.1	37.4	40.1	90	37.4	4	10	90	0.00	29.727 
17:15	40.1	37.4	40.1	90	37.4	4	7	112	0.00	29.710 
17:20	40.1	36.6	40.1	89	37.1	5	10	112	0.00	29.710 
17:25	40.2	37.5	40.2	89	37.2	4	9	112	0.00	29.710 
17:30	40.2	37.5	40.2	88	36.9	4	10	90	0.00	29.700 
17:35	40.3	37.7	40.3	87	36.7	4	11	90	0.01	29.700 
17:40	40.5	37.1	40.5	86	36.6	5	12	112	0.00	29.700 
17:45	40.5	37.9	40.5	86	36.6	4	10	90	0.00	29.683 
17:50	40.6	38.0	40.6	85	36.4	4	9	90	0.00	29.683 
17:55	40.6	40.6	40.6	84	36.2	3	6	90	0.00	29.683 
18:00	40.6	38.0	40.6	84	36.2	4	9	90	0.00	29.687 
18:05	40.8	38.2	40.8	85	36.6	4	7	112	0.00	29.687 
18:10	40.9	38.4	40.9	83	36.1	4	10	90	0.00	29.687 
18:15	40.9	38.4	40.9	82	35.8	4	12	112	0.00	29.672 
18:20	41.1	38.6	41.1	82	36.0	4	11	90	0.00	29.672 
18:25	41.2	37.9	41.2	81	35.8	5	10	90	0.00	29.672 
18:30	41.3	38.8	41.3	82	36.2	4	9	112	0.00	29.669 
18:35	41.5	39.1	41.5	82	36.4	4	9	90	0.00	29.669 
18:40	41.5	39.1	41.5	82	36.4	4	9	90	0.00	29.669 
18:45	41.6	39.2	41.6	82	36.5	4	9	90	0.00	29.666 
18:50	41.6	38.4	41.6	82	36.5	5	10	90	0.00	29.666 
18:55	41.6	41.6	41.6	83	36.8	3	7	112	0.00	29.666 
19:00	41.6	39.2	41.6	83	36.8	4	7	90	0.00	29.659 
19:05	41.6	38.4	41.6	83	36.8	5	9	112	0.00	29.659 
19:10	41.5	39.1	41.5	84	37.0	4	9	90	0.00	29.659 
19:15	41.5	39.1	41.5	84	37.0	4	9	112	0.00	29.649 
19:20	41.5	38.2	41.5	84	37.0	5	13	112	0.00	29.649 
19:25	41.3	38.0	41.3	84	36.8	5	10	112	0.00	29.649 
19:30	41.2	37.9	41.2	85	37.0	5	11	90	0.00	29.635 
19:35	41.1	37.1	41.1	85	36.9	6	11	112	0.00	29.635 
19:40	41.1	37.8	41.1	85	36.9	5	12	112	0.00	29.635 
19:45	40.9	37.5	40.9	86	37.0	5	11	112	0.00	29.620 
19:50	40.9	38.4	40.9	86	37.0	4	7	112	0.00	29.620 
19:55	40.8	38.2	40.8	86	36.9	4	10	90	0.00	29.620 
20:00	40.8	40.8	40.8	86	36.9	2	5	90	0.00	29.613 
20:05	40.9	38.4	40.9	87	37.3	4	7	90	0.00	29.613 
20:10	41.1	38.6	41.1	87	37.5	4	7	90	0.00	29.613 
20:15	41.1	41.1	41.1	87	37.5	3	9	90	0.00	29.603 
20:20	41.1	41.1	41.1	87	37.5	3	7	112	0.00	29.603 
20:25	41.1	41.1	41.1	87	37.5	3	6	90	0.00	29.603 
20:30	40.9	40.9	40.9	87	37.3	2	7	90	0.00	29.596 
20:35	40.8	40.8	40.8	87	37.2	3	6	90	0.00	29.596 
20:40	40.6	40.6	40.6	88	37.3	3	6	90	0.00	29.596 
20:45	40.5	40.5	40.5	88	37.2	2	7	90	0.00	29.585 
20:50	40.5	40.5	40.5	88	37.2	2	5	90	0.00	29.585 
20:55	40.5	40.5	40.5	88	37.2	3	6	90	0.00	29.585 
21:00	40.5	40.5	40.5	89	37.5	3	6	90	0.00	29.572 
21:05	40.3	40.3	40.3	89	37.3	1	4	45	0.00	29.572 
21:10	40.5	40.5	40.5	90	37.8	2	4	45	0.00	29.572 
21:15	40.8	40.8	40.8	90	38.1	2	5	90	0.00	29.557 
21:20	41.2	41.2	41.2	91	38.8	2	5	90	0.00	29.557 
21:25	42.1	42.1	42.1	91	39.7	3	7	90	0.00	29.557 
21:30	42.8	42.8	42.8	91	40.4	2	6	112	0.00	29.569 
21:35	43.2	43.2	43.2	91	40.8	1	5	112	0.00	29.569 
21:40	43.8	43.8	43.8	91	41.3	2	4	90	0.00	29.569 
21:45	44.2	44.2	44.2	91	41.7	2	5	90	0.00	29.558 
21:50	44.5	44.5	44.5	91	42.0	2	4	112	0.00	29.558 
21:55	44.8	44.8	44.8	91	42.3	1	3	112	0.00	29.558 
22:00	45.1	45.1	45.1	92	42.9	2	4	112	0.00	29.562 
22:05	45.2	45.2	45.2	92	43.0	1	3	112	0.00	29.562 
22:10	45.4	45.4	45.4	92	43.2	1	3	112	0.00	29.562 
22:15	46.1	46.1	46.1	92	43.9	2	5	112	0.00	29.539 
22:20	46.8	46.8	46.8	93	44.9	1	4	135	0.00	29.539 
22:25	48.0	48.0	48.0	94	46.4	1	4	112	0.00	29.539 
22:30	50.1	50.1	50.1	95	48.7	2	9	112	0.00	29.512 
22:35	52.0	52.0	52.0	95	50.6	2	7	90	0.00	29.512 
22:40	53.5	53.5	53.5	95	52.1	3	6	112	0.00	29.512 
22:45	54.4	54.4	54.4	94	52.7	4	7	90	0.00	29.495 
22:50	55.0	55.0	55.0	93	53.0	2	5	90	0.00	29.495 
22:55	55.6	55.6	55.6	93	53.6	3	12	90	0.00	29.495 
23:00	56.0	56.0	56.0	92	53.7	3	10	112	0.00	29.478 
23:05	56.2	56.2	56.2	92	53.9	2	7	90	0.00	29.478 
23:10	56.3	56.3	56.3	92	54.0	2	9	90	0.00	29.478 
23:15	56.3	56.3	56.3	91	53.7	1	5	112	0.00	29.475 
23:20	56.2	56.2	56.2	91	53.6	1	4	112	0.00	29.475 
23:25	56.3	56.3	56.3	91	53.7	1	4	90	0.00	29.475 
23:30	56.3	56.3	56.3	91	53.7	1	4	112	0.00	29.472 
23:35	56.3	56.3	56.3	91	53.7	1	4	112	0.00	29.472 
23:40	56.3	56.3	56.3	91	53.7	1	4	90	0.00	29.472 
23:45	56.5	56.5	56.5	90	53.6	1	4	112	0.00	29.469 
23:50	56.5	56.5	56.5	90	53.6	1	4	112	0.00	29.469 
23:55	56.6	56.6	56.6	90	53.7	1	6	112	0.00	29.469 

CoCoRaHS
IN-AL-39
A2 Web Hosting
Creative Commons License
GoDaddy
search engine by freefind advanced

loaded 2018-11-17 00:13:46 • last modified 2010-11-18 10:43:29
Privacy PolicyDisclaimer
• wx.awcolley.com is powered by PmWiki v.2002016 •
• all content (unless otherwise noted) © 2018 A W Colley